Login

tom88
4 activity; - Last training unit 31/01/2015
31/01/2015 Show to everybody pianura e strappi anche in doppia cifra. defa finale 99.78 1608 04:29:28 22.22 Km\h Caad 10
29/01/2015 Show to everybody Corsa pomeridiana 7.27 42 00:36:43 11.88 Km\h Cube Elite Super Hpc Race 29
27/01/2015 Show to everybody xc colle - sùcornola * 2 + lavoro 25.01 675 01:25:00 17.65 Km\h
27/01/2015 Show to everybody 27/01/15 Lecco, Lombardia, Italy 13.48 447 00:45:12 17.89 Km\h
25/01/2015 Show to everybody sange e san michele. defaticante verso casa 38.54 1229 02:49:10 13.67 Km\h
24/01/2015 Show to everybody ambria e selvino 114.68 1593 04:30:17 25.46 Km\h Caad 10
20/01/2015 Show to everybody Corsa pomeridiana 11.31 51 00:54:58 12.35 Km\h Cube Elite Super Hpc Race 29
18/01/2015 Show to everybody valgre-burligo-cava collepedrino e laghetto 49.72 1549 03:10:39 15.65 Km\h
15/01/2015 Show to everybody 15/01/15 Malgrate, Lombardia, Italy 3.12 8 00:15:21 12.18 Km\h
28/12/2014 Show to everybody Allenamento n. 1 11.6 898 02:32:27 4.56 Km\h
17/07/2014 Show to everybody Allenamento n. 3 13.58 184 00:47:54 17.01 Km\h
26/06/2014 Show to everybody Allenamento n. 2 16.4 466 00:53:14 18.49 Km\h
25/06/2014 Show to everybody Allenamento n. 1 25.41 541 01:11:02 21.46 Km\h Cube Ltd Pro 2011
17/11/2013 Show to everybody monte canto 53.17 1496 03:23:46 15.66 Km\h Cube Elite Super Hpc Race 29
10/11/2013 Show to everybody monte barro 44.72 1428 02:46:03 16.16 Km\h Cube Elite Super Hpc Race 29
28/10/2013 Show to everybody giro in brianza 75.09 1488 04:28:39 16.77 Km\h Cube Elite Super Hpc Race 29
26/10/2013 Show to everybody 2*villa-carvico-rivieria 49.65 1355 02:37:14 18.95 Km\h Cube Elite Super Hpc Race 29
19/10/2013 Show to everybody 2 giri canto-caprino 54.29 1345 03:10:18 17.12 Km\h Cube Elite Super Hpc Race 29
16/10/2013 Show to everybody lavoro-casa 11.78 441 00:42:57 16.46 Km\h Cube Ltd Pro 2011
22/09/2013 Show to everybody 2 volte villa-carivico-canto-fontanella 52.42 1280 02:54:47 17.99 Km\h Cube Elite Super Hpc Race 29
17/09/2013 Show to everybody strada lavoro-casa via somasca 11.2 460 00:43:57 15.3 Km\h Cube Ltd Pro 2011
15/09/2013 Show to everybody Gara Valsassina 57.89 2007 04:09:43 13.91 Km\h Cube Elite Super Hpc Race 29
12/09/2013 Show to everybody roncola-laghetto pertus 53.36 1356 02:34:39 20.7 Km\h Cube Elite Super Hpc Race 29
10/09/2013 Show to everybody un pò di canto 48.97 1286 02:37:30 18.65 Km\h Cube Elite Super Hpc Race 29
06/09/2013 Show to everybody strada roncola-laghetto pertus 48.02 1574 02:09:37 22.23 Km\h Cube Elite Super Hpc Race 29
04/09/2013 Show to everybody carvico-canto-riviera 52.15 1525 02:45:07 18.95 Km\h Cube Elite Super Hpc Race 29
31/08/2013 Show to everybody strada roncola-laghetto pertus 45.44 1241 02:03:52 22.01 Km\h Cube Elite Super Hpc Race 29
28/08/2013 Show to everybody laghetto-costa imagna-riviera 52.83 1858 02:41:24 19.64 Km\h Cube Elite Super Hpc Race 29
27/08/2013 Show to everybody valcava-laghetto pertus 29.92 1084 01:50:16 16.28 Km\h Cube Elite Super Hpc Race 29
25/08/2013 Show to everybody strada caprino-pontida ecc 34.86 673 01:36:37 21.65 Km\h Cube Ltd Pro 2011
23/08/2013 Show to everybody giro 2 colli 19.87 921 01:32:15 12.92 Km\h Cube Elite Super Hpc Race 29
20/08/2013 Show to everybody strada valico di valcava 21.76 1092 01:39:05 13.18 Km\h Cube Ltd Pro 2011
18/08/2013 Show to everybody consonno-san gregorio 44.79 1143 02:13:27 20.14 Km\h Cube Elite Super Hpc Race 29
13/08/2013 Show to everybody canto - fontanella 43.58 1143 02:25:28 17.98 Km\h Cube Elite Super Hpc Race 29
31/07/2013 Show to everybody giro 3 colli 29.61 1353 01:38:29 18.04 Km\h Cube Elite Super Hpc Race 29
26/07/2013 Show to everybody laghetto pertus 17.59 710 01:10:49 14.91 Km\h Cube Elite Super Hpc Race 29
23/07/2013 Show to everybody strada colle di sogno 17.4 654 00:57:40 18.1 Km\h Cube Ltd Pro 2011
17/07/2013 Show to everybody giro laghetto pertus 18.25 1450 01:21:55 13.36 Km\h Cube Ltd Pro 2011
16/07/2013 Show to everybody strada celana-cisano-monte 30.38 1034 01:25:48 21.25 Km\h Cube Ltd Pro 2011
10/07/2013 Show to everybody laghetto Pertus 15.32 1333 01:21:12 11.32 Km\h Cube Ltd Pro 2011
03/07/2013 Show to everybody opreno-colle di sogno 28.29 815 01:40:38 16.87 Km\h Cube Ltd Pro 2011
01/07/2013 Show to everybody Colle di sogno - Carenno 20.91 718 01:22:14 15.26 Km\h Cube Ltd Pro 2011
29/06/2013 Show to everybody Carvico-Canto-Riviera 49.4 1734 02:44:46 17.99 Km\h Cube Ltd Pro 2011
28/06/2013 Show to everybody strada cisano-monte 34.27 1251 01:41:26 20.27 Km\h Cube Ltd Pro 2011
25/06/2013 Show to everybody Giro 2 colli 27.61 1547 01:45:50 15.65 Km\h Cube Ltd Pro 2011
23/06/2013 Show to everybody Laghetto Pertus 23.9 817 02:01:59 11.75 Km\h Cube Ltd Pro 2011
18/06/2013 Show to everybody strada celana-monte 31.7 1163 01:32:06 20.65 Km\h Cube Ltd Pro 2011
16/06/2013 Show to everybody Consonno 36.39 1042 02:14:06 16.28 Km\h Cube Ltd Pro 2011
15/06/2013 Show to everybody opreno-colle di sogno 27.42 864 01:38:13 16.75 Km\h Cube Ltd Pro 2011
13/06/2013 Show to everybody Giro 3 colli 28.22 1153 01:49:41 15.44 Km\h Cube Ltd Pro 2011
11/06/2013 Show to everybody Monte Canto-Riviera 48.85 1218 02:42:29 18.04 Km\h Cube Ltd Pro 2011
Training units 0
Kilometers 0 Km
Vertical gain 0 mt
Hours of riding 00:00:00
Average speed 0 Km/h
average HR 150
Points 161
Live Tracking »

Cube Ltd Pro 2011 32:13:41 543.32 Km
Cube Elite Super Hpc Race 29 67:34:57 1232.95 Km
Caad 10 08:59:45 214.47 Km

 
If you stop following this users you will not be able to compare your trainings with his

Now you follow this users and you can compare your trainings


MTB-Mag.com | 2012-2021 Training Camp v.1.6 rev 05